createdAt,value
2019-04-26T00:00:58.662Z,1001.84
2019-04-26T00:01:58.653Z,1001.84
2019-04-26T00:02:58.673Z,1001.83
2019-04-26T00:03:58.639Z,1001.76
2019-04-26T00:04:59.137Z,1001.76
2019-04-26T00:05:58.618Z,1001.77
2019-04-26T00:06:58.599Z,1001.76
2019-04-26T00:07:58.590Z,1001.80
2019-04-26T00:08:58.606Z,1001.79
2019-04-26T00:09:58.575Z,1001.75
2019-04-26T00:10:58.589Z,1001.79
2019-04-26T00:11:58.551Z,1001.75
2019-04-26T00:12:58.536Z,1001.80
2019-04-26T00:13:58.542Z,1001.82
2019-04-26T00:14:58.518Z,1001.78
2019-04-26T00:15:58.502Z,1001.70
2019-04-26T00:16:58.499Z,1001.75
2019-04-26T00:17:58.487Z,1001.73
2019-04-26T00:18:58.498Z,1001.71
2019-04-26T00:19:58.485Z,1001.69
2019-04-26T00:20:58.458Z,1001.68
2019-04-26T00:21:58.440Z,1001.72
2019-04-26T00:22:58.461Z,1001.65
2019-04-26T00:23:58.444Z,1001.67
2019-04-26T00:24:58.407Z,1001.67
2019-04-26T00:25:58.397Z,1001.67
2019-04-26T00:26:58.391Z,1001.69
2019-04-26T00:27:58.376Z,1001.66
2019-04-26T00:28:58.388Z,1001.65
2019-04-26T00:29:58.384Z,1001.62
2019-04-26T00:30:58.356Z,1001.63
2019-04-26T00:31:58.340Z,1001.68
2019-04-26T00:32:58.323Z,1001.58
2019-04-26T00:33:58.329Z,1001.59
2019-04-26T00:34:58.307Z,1001.54
2019-04-26T00:35:58.289Z,1001.54
2019-04-26T00:36:58.286Z,1001.51
2019-04-26T00:37:58.281Z,1001.50
2019-04-26T00:38:58.288Z,1001.48
2019-04-26T00:39:58.251Z,1001.43
2019-04-26T00:40:58.247Z,1001.41
2019-04-26T00:41:58.234Z,1001.40
2019-04-26T00:42:58.225Z,1001.45
2019-04-26T00:43:58.211Z,1001.46
2019-04-26T00:44:58.225Z,1001.44
2019-04-26T00:45:58.198Z,1001.39
2019-04-26T00:46:58.175Z,1001.36
2019-04-26T00:47:58.166Z,1001.38
2019-04-26T00:48:58.160Z,1001.36
2019-04-26T00:49:58.155Z,1001.28
2019-04-26T00:50:58.168Z,1001.35
2019-04-26T00:51:58.126Z,1001.33
2019-04-26T00:52:58.108Z,1001.33
2019-04-26T00:53:58.117Z,1001.29
2019-04-26T00:54:58.113Z,1001.28
2019-04-26T00:55:58.129Z,1001.25
2019-04-26T00:56:58.101Z,1001.27
2019-04-26T00:57:58.060Z,1001.25
2019-04-26T00:58:58.047Z,1001.20
2019-04-26T00:59:58.055Z,1001.20
2019-04-26T01:00:58.032Z,1001.22
2019-04-26T01:01:58.017Z,1001.19
2019-04-26T01:02:58.011Z,1001.21
2019-04-26T01:03:57.999Z,1001.19
2019-04-26T01:04:58.001Z,1001.15
2019-04-26T01:06:00.080Z,1001.15
2019-04-26T01:06:57.962Z,1001.17
2019-04-26T01:07:57.955Z,1001.14
2019-04-26T01:08:57.950Z,1001.16
2019-04-26T01:09:57.938Z,1001.10
2019-04-26T01:10:57.951Z,1001.10
2019-04-26T01:11:57.918Z,1001.09
2019-04-26T01:12:57.905Z,1001.07
2019-04-26T01:13:57.889Z,1001.06
2019-04-26T01:14:57.881Z,1001.08
2019-04-26T01:15:57.896Z,1001.06
2019-04-26T01:16:57.855Z,1001.09
2019-04-26T01:17:57.839Z,1001.05
2019-04-26T01:18:57.832Z,1001.04
2019-04-26T01:19:57.822Z,1000.99
2019-04-26T01:20:57.808Z,1001.00
2019-04-26T01:21:57.817Z,1000.94
2019-04-26T01:22:57.790Z,1000.94
2019-04-26T01:23:57.782Z,1001.00
2019-04-26T01:24:57.768Z,1000.97
2019-04-26T01:25:57.767Z,1000.94
2019-04-26T01:26:57.765Z,1000.92
2019-04-26T01:27:57.733Z,1000.94
2019-04-26T01:28:57.723Z,1000.90
2019-04-26T01:29:57.744Z,1000.92
2019-04-26T01:30:57.708Z,1000.89
2019-04-26T01:31:57.699Z,1000.89
2019-04-26T01:32:57.685Z,1000.86
2019-04-26T01:33:57.672Z,1000.89
2019-04-26T01:34:57.662Z,1000.83
2019-04-26T01:35:57.684Z,1000.85
2019-04-26T01:36:57.639Z,1000.80
2019-04-26T01:37:57.637Z,1000.84
2019-04-26T01:38:57.644Z,1000.87
2019-04-26T01:39:57.631Z,1000.79
2019-04-26T01:40:57.606Z,1000.76
2019-04-26T01:41:57.611Z,1000.81
2019-04-26T01:42:57.594Z,1000.78
2019-04-26T01:43:57.567Z,1000.81
2019-04-26T01:44:57.560Z,1000.79
2019-04-26T01:45:57.548Z,1000.80
2019-04-26T01:46:57.564Z,1000.76
2019-04-26T01:47:57.545Z,1000.74
2019-04-26T01:48:57.513Z,1000.73
2019-04-26T01:49:57.500Z,1000.76
2019-04-26T01:50:57.497Z,1000.73
2019-04-26T01:51:57.476Z,1000.73
2019-04-26T01:52:57.495Z,1000.68
2019-04-26T01:53:57.468Z,1000.69
2019-04-26T01:54:57.450Z,1000.69
2019-04-26T01:55:57.438Z,1000.65
2019-04-26T01:56:57.426Z,1000.66
2019-04-26T01:57:57.433Z,1000.65
2019-04-26T01:58:57.416Z,1000.65
2019-04-26T01:59:57.398Z,1000.64
2019-04-26T02:00:57.380Z,1000.74
2019-04-26T02:01:57.369Z,1000.72
2019-04-26T02:02:57.387Z,1000.76
2019-04-26T02:03:57.347Z,1000.76
2019-04-26T02:04:57.342Z,1000.69
2019-04-26T02:05:57.331Z,1000.70
2019-04-26T02:06:57.321Z,1000.70
2019-04-26T02:07:57.313Z,1000.69
2019-04-26T02:08:57.315Z,1000.64
2019-04-26T02:09:57.285Z,1000.70
2019-04-26T02:10:57.271Z,1000.72
2019-04-26T02:11:57.265Z,1000.64
2019-04-26T02:12:57.256Z,1000.64
2019-04-26T02:13:57.269Z,1000.66
2019-04-26T02:14:57.230Z,1000.61
2019-04-26T02:15:57.219Z,1000.63
2019-04-26T02:16:57.207Z,1000.55
2019-04-26T02:17:57.199Z,1000.56
2019-04-26T02:18:57.205Z,1000.53
2019-04-26T02:19:57.182Z,1000.61
2019-04-26T02:20:57.163Z,1000.58
2019-04-26T02:21:57.152Z,1000.57
2019-04-26T02:22:57.148Z,1000.51
2019-04-26T02:23:57.157Z,1000.54
2019-04-26T02:24:57.133Z,1000.46
2019-04-26T02:25:57.110Z,1000.46
2019-04-26T02:26:57.104Z,1000.42
2019-04-26T02:27:57.091Z,1000.47
2019-04-26T02:28:57.100Z,1000.34
2019-04-26T02:29:57.069Z,1000.37
2019-04-26T02:30:57.060Z,1000.38
2019-04-26T02:31:57.057Z,1000.37
2019-04-26T02:32:57.037Z,1000.35
2019-04-26T02:33:57.061Z,1000.35
2019-04-26T02:34:57.015Z,1000.36
2019-04-26T02:35:57.005Z,1000.35
2019-04-26T02:36:58.944Z,1000.30
2019-04-26T02:37:56.982Z,1000.36
2019-04-26T02:38:56.975Z,1000.33
2019-04-26T02:39:56.982Z,1000.32
2019-04-26T02:40:56.951Z,1000.28
2019-04-26T02:41:56.939Z,1000.31
2019-04-26T02:42:56.931Z,1000.28
2019-04-26T02:43:56.925Z,1000.24
2019-04-26T02:44:56.927Z,1000.27
2019-04-26T02:45:56.914Z,1000.32
2019-04-26T02:46:56.886Z,1000.17
2019-04-26T02:47:56.878Z,1000.22
2019-04-26T02:48:56.868Z,1000.26
2019-04-26T02:49:56.875Z,1000.26
2019-04-26T02:50:56.840Z,1000.19
2019-04-26T02:51:56.832Z,1000.19
2019-04-26T02:52:56.826Z,1000.20
2019-04-26T02:53:56.816Z,1000.24
2019-04-26T02:54:56.820Z,1000.22
2019-04-26T02:55:56.788Z,1000.19
2019-04-26T02:56:56.793Z,1000.24
2019-04-26T02:57:56.813Z,1000.23
2019-04-26T02:58:56.757Z,1000.24
2019-04-26T02:59:56.744Z,1000.22
2019-04-26T03:00:56.761Z,1000.23
2019-04-26T03:01:56.726Z,1000.21
2019-04-26T03:02:56.714Z,1000.26
2019-04-26T03:03:56.710Z,1000.24
2019-04-26T03:04:56.705Z,1000.28
2019-04-26T03:05:56.707Z,1000.22
2019-04-26T03:07:03.338Z,1000.19
2019-04-26T03:07:57.658Z,1000.15
2019-04-26T03:08:56.648Z,1000.18
2019-04-26T03:09:56.639Z,1000.18
2019-04-26T03:10:56.645Z,1000.14
2019-04-26T03:11:56.621Z,1000.11
2019-04-26T03:12:56.606Z,1000.13
2019-04-26T03:13:56.601Z,1000.13
2019-04-26T03:15:12.699Z,1000.15
2019-04-26T03:15:57.598Z,1000.18
2019-04-26T03:16:56.564Z,1000.13
2019-04-26T03:17:56.552Z,1000.07
2019-04-26T03:18:56.541Z,1000.06
2019-04-26T03:19:56.537Z,1000.09
2019-04-26T03:20:56.547Z,1000.11
2019-04-26T03:21:56.518Z,1000.10
2019-04-26T03:22:56.506Z,1000.06
2019-04-26T03:23:58.569Z,1000.14
2019-04-26T03:24:56.479Z,1000.06
2019-04-26T03:25:56.494Z,1000.12
2019-04-26T03:26:56.456Z,1000.09
2019-04-26T03:27:56.491Z,1000.07
2019-04-26T03:28:56.442Z,1000.09
2019-04-26T03:30:17.547Z,1000.11
2019-04-26T03:30:57.442Z,1000.08
2019-04-26T03:31:56.468Z,1000.11
2019-04-26T03:32:56.411Z,1000.17
2019-04-26T03:33:56.457Z,1000.09
2019-04-26T03:34:56.434Z,1000.10
2019-04-26T03:35:58.223Z,1000.10
2019-04-26T03:36:56.374Z,1000.06
2019-04-26T03:37:56.348Z,1000.03
2019-04-26T03:38:56.332Z,1000.12
2019-04-26T03:39:56.318Z,1000.07
2019-04-26T03:40:56.314Z,1000.00
2019-04-26T03:41:56.313Z,1000.08
2019-04-26T03:42:56.307Z,1000.06
2019-04-26T03:43:56.291Z,1000.08
2019-04-26T03:44:56.266Z,1000.12
2019-04-26T03:45:56.252Z,1000.15
2019-04-26T03:46:56.247Z,1000.13
2019-04-26T03:47:56.253Z,1000.12
2019-04-26T03:48:56.246Z,1000.08
2019-04-26T03:49:56.226Z,1000.15
2019-04-26T03:50:56.201Z,1000.12
2019-04-26T03:51:56.190Z,1000.06
2019-04-26T03:52:56.184Z,1000.12
2019-04-26T03:53:56.204Z,1000.09
2019-04-26T03:54:56.164Z,1000.09
2019-04-26T03:55:56.151Z,1000.08
2019-04-26T03:56:56.139Z,1000.03
2019-04-26T03:57:56.155Z,1000.00
2019-04-26T03:58:56.124Z,1000.09
2019-04-26T03:59:56.103Z,1000.06
2019-04-26T04:00:56.098Z,1000.07
2019-04-26T04:01:56.086Z,1000.11
2019-04-26T04:02:56.077Z,1000.09
2019-04-26T04:03:56.086Z,1000.11
2019-04-26T04:04:56.049Z,1000.13
2019-04-26T04:05:56.040Z,1000.13
2019-04-26T04:07:03.688Z,1000.15
2019-04-26T04:07:57.023Z,1000.14
2019-04-26T04:08:56.051Z,1000.19
2019-04-26T04:09:55.997Z,1000.19
2019-04-26T04:10:55.986Z,1000.17
2019-04-26T04:12:10.308Z,1000.17
2019-04-26T04:12:56.971Z,1000.16
2019-04-26T04:13:55.988Z,1000.16
2019-04-26T04:14:55.997Z,1000.15
2019-04-26T04:15:55.969Z,1000.16
2019-04-26T04:16:55.926Z,1000.18
2019-04-26T04:17:55.912Z,1000.17
2019-04-26T04:18:55.919Z,1000.14
2019-04-26T04:19:55.917Z,1000.21
2019-04-26T04:20:55.887Z,1000.12
2019-04-26T04:21:55.916Z,1000.15
2019-04-26T04:22:55.857Z,1000.16
2019-04-26T04:23:55.856Z,1000.20
2019-04-26T04:24:55.862Z,1000.17
2019-04-26T04:25:55.835Z,1000.19
2019-04-26T04:26:55.818Z,1000.21
2019-04-26T04:27:55.812Z,1000.18
2019-04-26T04:28:55.790Z,1000.21
2019-04-26T04:29:56.088Z,1000.14
2019-04-26T04:30:55.786Z,1000.12
2019-04-26T04:31:55.767Z,1000.12
2019-04-26T04:32:55.772Z,1000.17
2019-04-26T04:33:55.754Z,1000.10
2019-04-26T04:34:55.733Z,1000.15
2019-04-26T04:35:55.725Z,1000.13
2019-04-26T04:36:55.707Z,1000.13
2019-04-26T04:38:08.726Z,1000.08
2019-04-26T04:39:11.325Z,1000.13
2019-04-26T04:39:56.678Z,1000.12
2019-04-26T04:40:55.696Z,1000.16
2019-04-26T04:41:55.668Z,1000.11
2019-04-26T04:42:55.659Z,1000.17
2019-04-26T04:43:55.650Z,1000.17
2019-04-26T04:44:55.628Z,1000.15
2019-04-26T04:45:55.735Z,1000.18
2019-04-26T04:46:55.624Z,1000.22
2019-04-26T04:47:55.678Z,1000.19
2019-04-26T04:48:55.578Z,1000.17
2019-04-26T04:49:55.570Z,1000.18
2019-04-26T04:50:55.558Z,1000.20
2019-04-26T04:51:55.549Z,1000.18
2019-04-26T04:52:55.562Z,1000.18
2019-04-26T04:53:55.535Z,1000.17
2019-04-26T04:55:07.095Z,1000.20
2019-04-26T04:55:56.508Z,1000.23
2019-04-26T04:56:55.496Z,1000.29
2019-04-26T04:57:55.513Z,1000.28
2019-04-26T04:58:55.478Z,1000.28
2019-04-26T04:59:55.471Z,1000.25
2019-04-26T05:00:55.448Z,1000.25
2019-04-26T05:01:55.436Z,1000.29
2019-04-26T05:02:55.468Z,1000.29
2019-04-26T05:03:55.436Z,1000.29
2019-04-26T05:04:55.412Z,1000.28
2019-04-26T05:06:06.852Z,1000.28
2019-04-26T05:06:56.400Z,1000.28
2019-04-26T05:08:05.408Z,1000.28
2019-04-26T05:08:56.396Z,1000.27
2019-04-26T05:09:55.351Z,1000.22
2019-04-26T05:10:55.344Z,1000.21
2019-04-26T05:11:55.334Z,1000.20
2019-04-26T05:12:55.319Z,1000.24
2019-04-26T05:13:55.307Z,1000.25
2019-04-26T05:14:55.320Z,1000.23
2019-04-26T05:15:55.295Z,1000.19
2019-04-26T05:16:55.289Z,1000.23
2019-04-26T05:17:55.831Z,1000.16
2019-04-26T05:18:55.308Z,1000.15
2019-04-26T05:19:55.253Z,1000.13
2019-04-26T05:20:55.472Z,1000.21
2019-04-26T05:21:55.222Z,1000.19
2019-04-26T05:22:55.451Z,1000.18
2019-04-26T05:23:55.287Z,1000.14
2019-04-26T05:24:55.370Z,1000.17
2019-04-26T05:25:55.581Z,1000.15
2019-04-26T05:26:55.687Z,1000.12
2019-04-26T05:27:55.157Z,1000.09
2019-04-26T05:28:55.929Z,1000.09
2019-04-26T05:29:56.135Z,1000.05
2019-04-26T05:30:56.120Z,1000.09
2019-04-26T05:31:56.254Z,1000.08
2019-04-26T05:32:55.109Z,1000.08
2019-04-26T05:33:55.107Z,1000.07
2019-04-26T05:34:55.106Z,1000.09
2019-04-26T05:35:55.190Z,1000.07
2019-04-26T05:36:55.073Z,1000.05
2019-04-26T05:37:55.210Z,1000.09
2019-04-26T05:38:55.378Z,1000.13
2019-04-26T05:39:55.323Z,1000.14
2019-04-26T05:40:55.639Z,1000.12
2019-04-26T05:41:55.678Z,1000.10
2019-04-26T05:42:55.782Z,1000.12
2019-04-26T05:43:55.995Z,1000.04
2019-04-26T05:44:54.977Z,1000.10
2019-04-26T05:45:56.040Z,1000.07
2019-04-26T05:46:55.773Z,1000.10
2019-04-26T05:48:10.381Z,1000.11
2019-04-26T05:48:55.952Z,1000.08
2019-04-26T05:49:55.859Z,1000.17
2019-04-26T05:50:55.811Z,1000.12
2019-04-26T05:51:55.716Z,1000.09
2019-04-26T05:52:55.239Z,1000.19
2019-04-26T05:53:55.051Z,1000.19
2019-04-26T05:54:54.865Z,1000.18
2019-04-26T05:55:55.976Z,1000.22
2019-04-26T05:56:54.874Z,1000.33
2019-04-26T05:57:54.839Z,1000.35
2019-04-26T05:58:54.825Z,1000.35
2019-04-26T05:59:55.006Z,1000.29
2019-04-26T06:00:55.745Z,1000.31
2019-04-26T06:01:54.871Z,1000.16
2019-04-26T06:02:54.789Z,1000.28
2019-04-26T06:03:54.779Z,1000.25
2019-04-26T06:04:55.186Z,1000.16
2019-04-26T06:05:54.747Z,1000.22
2019-04-26T06:06:55.117Z,1000.23
2019-04-26T06:07:54.745Z,1000.21
2019-04-26T06:08:55.313Z,1000.25
2019-04-26T06:09:54.717Z,1000.27
2019-04-26T06:10:55.809Z,1000.28
2019-04-26T06:11:54.725Z,1000.27
2019-04-26T06:12:54.693Z,1000.22
2019-04-26T06:13:55.651Z,1000.21
2019-04-26T06:14:54.765Z,1000.11
2019-04-26T06:15:54.648Z,1000.13
2019-04-26T06:16:54.879Z,1000.19
2019-04-26T06:17:55.222Z,1000.15
2019-04-26T06:18:55.163Z,1000.14
2019-04-26T06:19:55.212Z,1000.20
2019-04-26T06:20:55.428Z,1000.21
2019-04-26T06:21:54.582Z,1000.24
2019-04-26T06:22:57.470Z,1000.21
2019-04-26T06:23:55.688Z,1000.19
2019-04-26T06:24:54.561Z,1000.20
2019-04-26T06:25:57.205Z,1000.23
2019-04-26T06:26:54.523Z,1000.22
2019-04-26T06:27:54.590Z,1000.19
2019-04-26T06:28:54.505Z,1000.19
2019-04-26T06:29:55.213Z,1000.20
2019-04-26T06:30:55.471Z,1000.27
2019-04-26T06:31:55.020Z,1000.25
2019-04-26T06:33:00.937Z,1000.25
2019-04-26T06:33:56.421Z,1000.23
2019-04-26T06:34:55.098Z,1000.22
2019-04-26T06:35:55.701Z,1000.21
2019-04-26T06:36:55.662Z,1000.23
2019-04-26T06:37:55.310Z,1000.23
2019-04-26T06:38:54.620Z,1000.20
2019-04-26T06:39:54.946Z,1000.24
2019-04-26T06:40:54.599Z,1000.18
2019-04-26T06:41:55.199Z,1000.16
2019-04-26T06:42:54.882Z,1000.19
2019-04-26T06:43:55.557Z,1000.19
2019-04-26T06:44:55.019Z,1000.22
2019-04-26T06:45:55.703Z,1000.23
2019-04-26T06:46:55.130Z,1000.16
2019-04-26T06:47:54.426Z,1000.18
2019-04-26T06:48:54.630Z,1000.12
2019-04-26T06:49:54.278Z,1000.12
2019-04-26T06:50:54.268Z,1000.11
2019-04-26T06:51:54.266Z,1000.07
2019-04-26T06:52:56.605Z,1000.09
2019-04-26T06:53:54.243Z,1000.09
2019-04-26T06:54:54.231Z,1000.08
2019-04-26T06:55:54.224Z,1000.14
2019-04-26T06:56:54.200Z,1000.15
2019-04-26T06:57:54.627Z,1000.06
2019-04-26T06:58:54.182Z,1000.14
2019-04-26T06:59:54.175Z,1000.08
2019-04-26T07:00:54.170Z,1000.12
2019-04-26T07:01:54.157Z,1000.08
2019-04-26T07:02:54.140Z,1000.10
2019-04-26T07:03:54.159Z,1000.13
2019-04-26T07:04:54.139Z,1000.15
2019-04-26T07:05:54.123Z,1000.09
2019-04-26T07:06:54.104Z,1000.15
2019-04-26T07:07:54.099Z,999.96
2019-04-26T07:08:57.577Z,1000.02
2019-04-26T07:09:54.067Z,999.98
2019-04-26T07:10:54.107Z,1000.05
2019-04-26T07:11:54.043Z,999.95
2019-04-26T07:12:54.046Z,999.99
2019-04-26T07:13:54.060Z,999.91
2019-04-26T07:14:54.019Z,999.90
2019-04-26T07:15:54.017Z,999.92
2019-04-26T07:16:54.007Z,999.94
2019-04-26T07:17:53.987Z,999.88
2019-04-26T07:18:53.975Z,999.91
2019-04-26T07:19:53.992Z,999.97
2019-04-26T07:20:54.026Z,999.92
2019-04-26T07:21:53.943Z,999.93
2019-04-26T07:22:53.931Z,999.93
2019-04-26T07:23:53.919Z,999.90
2019-04-26T07:24:53.970Z,999.89
2019-04-26T07:25:53.938Z,999.89
2019-04-26T07:26:53.900Z,999.93
2019-04-26T07:28:03.652Z,999.91
2019-04-26T07:28:54.870Z,999.88
2019-04-26T07:29:53.883Z,999.89
2019-04-26T07:30:53.846Z,999.84
2019-04-26T07:31:53.854Z,1000.18
2019-04-26T07:32:53.828Z,999.95
2019-04-26T07:33:53.824Z,999.84
2019-04-26T07:34:53.801Z,999.91
2019-04-26T07:35:53.813Z,999.86
2019-04-26T07:36:53.785Z,999.90
2019-04-26T07:37:53.775Z,999.92
2019-04-26T07:38:53.764Z,999.92
2019-04-26T07:39:53.762Z,1000.16
2019-04-26T07:40:53.775Z,1000.18
2019-04-26T07:41:53.730Z,1000.21
2019-04-26T07:42:53.717Z,1000.06
2019-04-26T07:43:53.709Z,1000.23
2019-04-26T07:44:53.704Z,1000.06
2019-04-26T07:45:53.697Z,1000.01
2019-04-26T07:46:53.706Z,999.91
2019-04-26T07:47:53.673Z,999.93
2019-04-26T07:48:53.653Z,1000.04
2019-04-26T07:49:53.644Z,1000.24
2019-04-26T07:50:53.641Z,1000.27
2019-04-26T07:51:53.660Z,1000.23
2019-04-26T07:52:53.633Z,1000.22
2019-04-26T07:53:53.603Z,1000.14
2019-04-26T07:54:53.591Z,1000.09
2019-04-26T07:55:53.581Z,1000.10
2019-04-26T07:56:53.579Z,1000.36
2019-04-26T07:57:53.588Z,1000.18
2019-04-26T07:58:53.558Z,1000.13
2019-04-26T07:59:53.546Z,1000.05
2019-04-26T08:00:53.530Z,999.97
2019-04-26T08:01:53.523Z,1000.04
2019-04-26T08:02:53.537Z,1000.00
2019-04-26T08:03:53.500Z,1000.06
2019-04-26T08:04:53.509Z,1000.08
2019-04-26T08:05:53.484Z,1000.04
2019-04-26T08:06:53.474Z,1000.03
2019-04-26T08:07:53.462Z,1000.06
2019-04-26T08:08:53.474Z,1000.06
2019-04-26T08:09:59.874Z,999.99
2019-04-26T08:10:54.437Z,1000.04
2019-04-26T08:11:53.433Z,1000.00
2019-04-26T08:12:53.407Z,1000.04
2019-04-26T08:13:53.426Z,1000.08
2019-04-26T08:14:53.384Z,1000.03
2019-04-26T08:15:53.436Z,1000.04
2019-04-26T08:16:53.372Z,1000.06
2019-04-26T08:17:53.367Z,999.98
2019-04-26T08:18:53.439Z,1000.03
2019-04-26T08:19:53.609Z,1000.02
2019-04-26T08:20:53.339Z,1000.02
2019-04-26T08:21:53.320Z,1000.02
2019-04-26T08:22:53.312Z,1000.05
2019-04-26T08:23:56.577Z,1000.09
2019-04-26T08:24:53.322Z,1000.01
2019-04-26T08:25:53.292Z,999.94
2019-04-26T08:26:53.284Z,1000.07
2019-04-26T08:27:53.274Z,1000.02
2019-04-26T08:28:56.643Z,999.99
2019-04-26T08:29:54.269Z,1000.07
2019-04-26T08:30:53.240Z,1000.04
2019-04-26T08:31:57.500Z,999.93
2019-04-26T08:32:53.210Z,999.94
2019-04-26T08:33:53.321Z,1000.00
2019-04-26T08:34:53.187Z,1000.00
2019-04-26T08:35:53.451Z,999.89
2019-04-26T08:36:53.176Z,999.95
2019-04-26T08:37:53.158Z,999.88
2019-04-26T08:38:54.047Z,999.83
2019-04-26T08:39:53.149Z,999.88
2019-04-26T08:40:53.163Z,999.84
2019-04-26T08:41:53.135Z,999.85
2019-04-26T08:42:53.381Z,999.86
2019-04-26T08:43:55.755Z,999.83
2019-04-26T08:44:53.076Z,999.87
2019-04-26T08:46:02.939Z,999.83
2019-04-26T08:46:54.052Z,999.82
2019-04-26T08:47:53.606Z,999.80
2019-04-26T08:48:53.040Z,999.81
2019-04-26T08:49:53.055Z,999.83
2019-04-26T08:50:53.027Z,999.85
2019-04-26T08:51:55.973Z,1000.12
2019-04-26T08:52:53.009Z,1000.22
2019-04-26T08:53:52.987Z,1000.30
2019-04-26T08:54:53.013Z,1000.15
2019-04-26T08:55:52.972Z,1000.05
2019-04-26T08:56:52.953Z,999.98
2019-04-26T08:57:52.938Z,999.96
2019-04-26T08:58:52.928Z,999.92
2019-04-26T08:59:52.920Z,999.99
2019-04-26T09:00:52.940Z,999.98
2019-04-26T09:01:52.909Z,999.96
2019-04-26T09:02:52.897Z,999.93
2019-04-26T09:03:52.886Z,999.91
2019-04-26T09:04:52.868Z,999.84
2019-04-26T09:05:52.879Z,999.89
2019-04-26T09:06:52.852Z,999.86
2019-04-26T09:07:53.492Z,999.83
2019-04-26T09:08:52.834Z,999.85
2019-04-26T09:09:57.519Z,999.84
2019-04-26T09:10:53.824Z,999.87
2019-04-26T09:11:59.615Z,999.91
2019-04-26T09:12:53.790Z,999.91
2019-04-26T09:13:52.785Z,1000.13
2019-04-26T09:14:52.781Z,1000.30
2019-04-26T09:15:52.812Z,1000.39
2019-04-26T09:16:52.753Z,1000.46
2019-04-26T09:17:52.733Z,1000.47
2019-04-26T09:18:55.235Z,1000.39
2019-04-26T09:19:53.720Z,1000.49
2019-04-26T09:20:52.711Z,1000.54
2019-04-26T09:21:53.662Z,1000.46
2019-04-26T09:22:56.066Z,1000.04
2019-04-26T09:23:52.679Z,999.92
2019-04-26T09:24:55.043Z,999.90
2019-04-26T09:25:59.396Z,999.88
2019-04-26T09:26:53.670Z,999.92
2019-04-26T09:27:52.641Z,999.87
2019-04-26T09:28:52.900Z,999.88
2019-04-26T09:29:52.619Z,999.92
2019-04-26T09:30:52.606Z,999.80
2019-04-26T09:31:54.582Z,999.82
2019-04-26T09:32:52.680Z,999.81
2019-04-26T09:33:52.587Z,999.87
2019-04-26T09:34:52.570Z,999.80
2019-04-26T09:35:52.558Z,999.78
2019-04-26T09:36:52.550Z,999.81
2019-04-26T09:37:52.568Z,999.78
2019-04-26T09:38:52.524Z,999.83
2019-04-26T09:39:52.513Z,999.82
2019-04-26T09:40:55.914Z,999.81
2019-04-26T09:41:52.500Z,999.82
2019-04-26T09:42:52.483Z,999.85
2019-04-26T09:43:55.001Z,999.77
2019-04-26T09:44:53.474Z,999.76
2019-04-26T09:45:52.465Z,999.70
2019-04-26T09:46:54.181Z,999.75
2019-04-26T09:47:52.456Z,999.75
2019-04-26T09:48:52.457Z,999.77
2019-04-26T09:49:52.417Z,999.73
2019-04-26T09:50:52.417Z,999.76
2019-04-26T09:51:52.400Z,999.79
2019-04-26T09:52:52.383Z,999.73
2019-04-26T09:53:52.401Z,999.81
2019-04-26T09:54:52.371Z,999.80
2019-04-26T09:55:52.389Z,999.86
2019-04-26T09:56:52.360Z,999.84
2019-04-26T09:57:53.471Z,999.78
2019-04-26T09:58:52.354Z,999.91
2019-04-26T09:59:52.317Z,999.85
2019-04-26T10:00:52.300Z,999.83
2019-04-26T10:01:55.412Z,999.90
2019-04-26T10:02:53.281Z,999.79
2019-04-26T10:03:52.332Z,999.88
2019-04-26T10:04:52.265Z,999.86
2019-04-26T10:05:55.768Z,999.91
2019-04-26T10:06:52.245Z,1000.02
2019-04-26T10:07:52.249Z,1000.12
2019-04-26T10:08:52.494Z,1000.19
2019-04-26T10:09:56.476Z,1000.06
2019-04-26T10:10:53.201Z,1000.07
2019-04-26T10:11:52.229Z,1000.48
2019-04-26T10:12:52.190Z,1000.50
2019-04-26T10:13:52.197Z,1000.16
2019-04-26T10:14:52.162Z,1000.17
2019-04-26T10:15:52.145Z,1000.38
2019-04-26T10:16:52.146Z,1000.63
2019-04-26T10:17:52.140Z,1000.60
2019-04-26T10:18:54.422Z,1000.33
2019-04-26T10:19:52.126Z,1000.14
2019-04-26T10:20:52.101Z,1000.31
2019-04-26T10:21:52.101Z,1000.33
2019-04-26T10:22:52.089Z,1000.41
2019-04-26T10:23:52.072Z,1000.40
2019-04-26T10:24:52.083Z,1000.54
2019-04-26T10:25:53.592Z,1000.45
2019-04-26T10:26:52.044Z,1000.61
2019-04-26T10:27:52.047Z,1000.70
2019-04-26T10:28:52.246Z,1000.64
2019-04-26T10:29:56.565Z,1000.45
2019-04-26T10:30:53.009Z,1000.64
2019-04-26T10:31:52.881Z,1000.72
2019-04-26T10:32:51.982Z,1000.67
2019-04-26T10:33:51.979Z,1000.69
2019-04-26T10:34:51.992Z,1000.73
2019-04-26T10:35:52.575Z,1000.66
2019-04-26T10:36:51.955Z,1000.68
2019-04-26T10:37:52.703Z,1000.69
2019-04-26T10:38:54.438Z,1000.69
2019-04-26T10:39:51.962Z,1000.69
2019-04-26T10:40:52.887Z,1000.73
2019-04-26T10:41:51.905Z,1000.72
2019-04-26T10:42:51.894Z,1000.70
2019-04-26T10:43:51.886Z,1000.76
2019-04-26T10:44:51.918Z,1000.67
2019-04-26T10:45:53.909Z,1000.71
2019-04-26T10:46:55.629Z,1000.66
2019-04-26T10:47:51.858Z,1000.67
2019-04-26T10:48:51.849Z,1000.76
2019-04-26T10:49:54.382Z,1000.79
2019-04-26T10:50:52.842Z,1000.78
2019-04-26T10:51:51.834Z,1000.79
2019-04-26T10:52:54.245Z,1000.77
2019-04-26T10:53:51.804Z,1000.84
2019-04-26T10:54:51.819Z,1000.84
2019-04-26T10:55:51.780Z,1000.88
2019-04-26T10:56:51.777Z,1000.93
2019-04-26T10:57:51.779Z,1000.88
2019-04-26T10:58:51.760Z,1000.81
2019-04-26T10:59:51.791Z,1000.87
2019-04-26T11:00:52.670Z,1000.88
2019-04-26T11:01:51.729Z,1000.78
2019-04-26T11:02:51.723Z,1000.82
2019-04-26T11:03:51.721Z,1000.78
2019-04-26T11:04:51.705Z,1000.82
2019-04-26T11:05:53.659Z,1000.87
2019-04-26T11:06:51.691Z,1000.85
2019-04-26T11:07:53.389Z,1000.86
2019-04-26T11:08:51.671Z,1000.80
2019-04-26T11:09:51.663Z,1000.81
2019-04-26T11:10:51.675Z,1000.92
2019-04-26T11:11:51.654Z,1000.80
2019-04-26T11:12:51.633Z,1000.85
2019-04-26T11:13:51.625Z,1000.83
2019-04-26T11:14:53.367Z,1000.82
2019-04-26T11:15:51.627Z,1000.88
2019-04-26T11:16:51.644Z,1000.82
2019-04-26T11:17:51.596Z,1000.84
2019-04-26T11:18:51.583Z,1000.83
2019-04-26T11:19:51.588Z,1000.77
2019-04-26T11:20:51.579Z,1000.84
2019-04-26T11:21:54.886Z,1000.79
2019-04-26T11:22:51.573Z,1000.81
2019-04-26T11:23:51.550Z,1000.83
2019-04-26T11:24:53.848Z,1000.82
2019-04-26T11:25:51.540Z,1000.89
2019-04-26T11:26:51.524Z,1000.84
2019-04-26T11:27:51.504Z,1000.85
2019-04-26T11:28:55.539Z,1000.79
2019-04-26T11:29:53.783Z,1000.68
2019-04-26T11:30:52.042Z,1000.58
2019-04-26T11:31:54.052Z,1000.69
2019-04-26T11:32:51.468Z,1000.78
2019-04-26T11:33:51.497Z,1000.88
2019-04-26T11:34:54.634Z,1000.87
2019-04-26T11:35:52.447Z,1000.84
2019-04-26T11:36:51.458Z,1000.87
2019-04-26T11:37:55.194Z,1000.74
2019-04-26T11:38:52.449Z,1000.68
2019-04-26T11:39:51.417Z,1000.56
2019-04-26T11:41:05.047Z,1000.61
2019-04-26T11:41:52.407Z,1000.53
2019-04-26T11:42:51.394Z,1000.51
2019-04-26T11:43:52.807Z,1000.71
2019-04-26T11:44:51.366Z,1000.79
2019-04-26T11:46:03.526Z,1000.86
2019-04-26T11:46:52.373Z,1000.78
2019-04-26T11:47:56.172Z,1000.85
2019-04-26T11:48:58.784Z,1000.71
2019-04-26T11:49:52.347Z,1000.55
2019-04-26T11:50:52.310Z,1000.59
2019-04-26T11:51:51.330Z,1000.53
2019-04-26T11:52:51.317Z,1000.54
2019-04-26T11:53:51.312Z,1000.37
2019-04-26T11:54:54.856Z,1000.18
2019-04-26T11:55:51.277Z,1000.10
2019-04-26T11:56:51.358Z,1000.08
2019-04-26T11:57:51.254Z,1000.11
2019-04-26T11:58:52.435Z,999.90
2019-04-26T11:59:52.242Z,999.93
2019-04-26T12:00:51.250Z,999.85
2019-04-26T12:01:51.259Z,999.92
2019-04-26T12:02:52.263Z,999.81
2019-04-26T12:03:51.698Z,1000.05
2019-04-26T12:04:53.867Z,1000.09
2019-04-26T12:05:51.187Z,1000.20
2019-04-26T12:06:51.212Z,1000.14
2019-04-26T12:07:51.172Z,1000.19
2019-04-26T12:08:51.158Z,1000.05
2019-04-26T12:09:51.156Z,1000.08